createdAt,value
2018-06-06T00:01:16.500Z,36.70
2018-06-06T00:03:46.327Z,35.90
2018-06-06T00:06:16.197Z,36.53
2018-06-06T00:08:45.953Z,37.03
2018-06-06T00:11:15.820Z,36.73
2018-06-06T00:13:45.601Z,37.93
2018-06-06T00:16:15.553Z,36.83
2018-06-06T00:18:46.221Z,37.70
2018-06-06T00:21:16.059Z,37.80
2018-06-06T00:23:45.833Z,36.07
2018-06-06T00:26:15.654Z,36.60
2018-06-06T00:28:45.769Z,37.90
2018-06-06T00:31:15.524Z,35.50
2018-06-06T00:33:45.328Z,38.07
2018-06-06T00:36:15.117Z,36.60
2018-06-06T00:38:44.904Z,37.47
2018-06-06T00:41:15.398Z,37.33
2018-06-06T00:43:44.901Z,38.20
2018-06-06T00:46:14.449Z,35.83
2018-06-06T00:48:44.353Z,36.43
2018-06-06T00:51:14.139Z,38.17
2018-06-06T00:53:43.973Z,36.80
2018-06-06T00:56:13.813Z,35.67
2018-06-06T00:58:43.641Z,38.77
2018-06-06T01:01:13.434Z,38.57
2018-06-06T01:03:43.217Z,37.50
2018-06-06T01:06:13.027Z,39.07
2018-06-06T01:08:42.801Z,37.47
2018-06-06T01:11:12.622Z,37.43
2018-06-06T01:13:42.513Z,36.47
2018-06-06T01:16:12.326Z,37.10
2018-06-06T01:18:42.739Z,36.20
2018-06-06T01:21:12.508Z,37.57
2018-06-06T01:23:42.304Z,37.33
2018-06-06T01:26:12.787Z,37.33
2018-06-06T01:28:42.804Z,37.50
2018-06-06T01:31:12.576Z,37.73
2018-06-06T01:33:43.284Z,37.27
2018-06-06T01:36:13.089Z,36.77
2018-06-06T01:38:42.894Z,38.83
2018-06-06T01:41:12.675Z,36.90
2018-06-06T01:43:42.467Z,39.97
2018-06-06T01:46:12.259Z,38.87
2018-06-06T01:48:42.031Z,35.77
2018-06-06T01:51:11.884Z,38.93
2018-06-06T01:53:41.660Z,35.77
2018-06-06T01:56:11.401Z,35.67
2018-06-06T01:58:41.289Z,35.93
2018-06-06T02:01:11.016Z,35.53
2018-06-06T02:03:40.793Z,38.30
2018-06-06T02:06:10.592Z,38.50
2018-06-06T02:08:40.639Z,38.60
2018-06-06T02:11:10.465Z,38.10
2018-06-06T02:13:40.224Z,39.20
2018-06-06T02:16:10.025Z,38.00
2018-06-06T02:18:39.784Z,35.47
2018-06-06T02:21:09.633Z,35.50
2018-06-06T02:23:39.460Z,35.50
2018-06-06T02:26:09.281Z,35.37
2018-06-06T02:28:39.092Z,37.93
2018-06-06T02:31:08.868Z,34.30
2018-06-06T02:33:38.701Z,35.10
2018-06-06T02:36:08.541Z,35.00
2018-06-06T02:38:37.994Z,33.67
2018-06-06T02:41:07.701Z,32.87
2018-06-06T02:43:37.477Z,32.07
2018-06-06T02:46:07.257Z,35.30
2018-06-06T02:48:36.724Z,34.53
2018-06-06T02:51:06.296Z,34.80
2018-06-06T02:53:36.052Z,33.67
2018-06-06T02:56:06.563Z,31.57
2018-06-06T02:58:36.350Z,34.40
2018-06-06T03:01:06.250Z,32.67
2018-06-06T03:03:35.817Z,36.50
2018-06-06T03:06:05.936Z,35.57
2018-06-06T03:08:35.765Z,36.03
2018-06-06T03:11:05.538Z,37.70
2018-06-06T03:13:35.372Z,36.70
2018-06-06T03:16:05.116Z,35.00
2018-06-06T03:18:34.915Z,32.30
2018-06-06T03:21:04.693Z,34.87
2018-06-06T03:23:34.471Z,35.07
2018-06-06T03:26:04.249Z,36.07
2018-06-06T03:28:34.076Z,33.97
2018-06-06T03:31:04.520Z,34.77
2018-06-06T03:33:34.303Z,36.97
2018-06-06T03:36:04.121Z,36.10
2018-06-06T03:38:33.889Z,36.17
2018-06-06T03:41:03.668Z,38.00
2018-06-06T03:43:33.510Z,35.17
2018-06-06T03:46:03.973Z,35.63
2018-06-06T03:48:33.740Z,35.77
2018-06-06T03:51:04.849Z,37.07
2018-06-06T03:53:34.654Z,35.80
2018-06-06T03:56:04.501Z,37.20
2018-06-06T03:58:34.267Z,36.30
2018-06-06T04:01:04.158Z,38.50
2018-06-06T04:03:33.944Z,39.10
2018-06-06T04:06:03.753Z,40.90
2018-06-06T04:08:33.511Z,42.13
2018-06-06T04:11:03.305Z,41.00
2018-06-06T04:13:33.134Z,40.70
2018-06-06T04:16:03.781Z,40.03
2018-06-06T04:18:33.664Z,41.50
2018-06-06T04:21:03.545Z,43.63
2018-06-06T04:23:33.337Z,41.40
2018-06-06T04:26:02.982Z,44.50
2018-06-06T04:28:32.581Z,42.90
2018-06-06T04:31:03.001Z,40.83
2018-06-06T04:33:32.814Z,45.60
2018-06-06T04:36:02.250Z,43.90
2018-06-06T04:38:32.520Z,43.17
2018-06-06T04:41:02.313Z,43.37
2018-06-06T04:43:32.137Z,44.03
2018-06-06T04:46:01.948Z,43.97
2018-06-06T04:48:31.735Z,43.23
2018-06-06T04:51:01.588Z,42.87
2018-06-06T04:53:31.532Z,43.63
2018-06-06T04:56:01.334Z,42.93
2018-06-06T04:58:31.147Z,43.10
2018-06-06T05:01:00.928Z,41.30
2018-06-06T05:03:30.412Z,41.70
2018-06-06T05:06:00.692Z,39.43
2018-06-06T05:08:30.605Z,42.60
2018-06-06T05:11:00.400Z,38.33
2018-06-06T05:13:30.937Z,39.33
2018-06-06T05:16:00.752Z,39.07
2018-06-06T05:18:30.557Z,39.83
2018-06-06T05:21:01.083Z,38.93
2018-06-06T05:23:31.507Z,39.73
2018-06-06T05:26:01.305Z,39.10
2018-06-06T05:28:31.117Z,38.60
2018-06-06T05:31:00.932Z,39.20
2018-06-06T05:33:30.713Z,37.33
2018-06-06T05:36:00.666Z,37.27
2018-06-06T05:38:30.495Z,39.77
2018-06-06T05:41:00.277Z,38.73
2018-06-06T05:43:30.500Z,37.67
2018-06-06T05:46:00.282Z,37.80
2018-06-06T05:48:30.192Z,36.13
2018-06-06T05:51:00.078Z,36.77
2018-06-06T05:53:30.065Z,41.00
2018-06-06T05:56:00.399Z,39.07
2018-06-06T05:58:30.140Z,35.87
2018-06-06T06:00:59.947Z,35.00
2018-06-06T06:03:29.720Z,34.30
2018-06-06T06:05:59.517Z,34.93
2018-06-06T06:08:29.305Z,33.70
2018-06-06T06:10:59.080Z,31.53
2018-06-06T06:13:28.876Z,34.97
2018-06-06T06:15:58.667Z,34.33
2018-06-06T06:18:28.467Z,34.30
2018-06-06T06:20:58.256Z,33.87
2018-06-06T06:23:28.030Z,35.20
2018-06-06T06:25:58.268Z,33.67
2018-06-06T06:28:28.088Z,32.23
2018-06-06T06:30:57.879Z,32.20
2018-06-06T06:33:27.723Z,31.00
2018-06-06T06:35:57.503Z,33.73
2018-06-06T06:38:27.326Z,32.60
2018-06-06T06:40:57.136Z,34.07
2018-06-06T06:43:28.058Z,33.90
2018-06-06T06:45:57.849Z,32.07
2018-06-06T06:48:27.592Z,33.10
2018-06-06T06:50:57.400Z,31.43
2018-06-06T06:53:27.951Z,33.33
2018-06-06T06:55:57.764Z,32.30
2018-06-06T06:58:27.567Z,32.50
2018-06-06T07:00:57.376Z,33.80
2018-06-06T07:03:28.544Z,32.17
2018-06-06T07:05:59.341Z,32.63
2018-06-06T07:08:29.325Z,33.40
2018-06-06T07:10:58.824Z,31.40
2018-06-06T07:13:28.399Z,32.27
2018-06-06T07:15:58.222Z,32.73
2018-06-06T07:18:28.131Z,31.70
2018-06-06T07:20:57.672Z,32.70
2018-06-06T07:23:27.248Z,34.47
2018-06-06T07:25:57.056Z,33.53
2018-06-06T07:28:27.315Z,35.43
2018-06-06T07:30:57.644Z,32.17
2018-06-06T07:33:27.232Z,30.53
2018-06-06T07:35:57.002Z,29.47
2018-06-06T07:38:27.644Z,31.43
2018-06-06T07:40:57.484Z,31.33
2018-06-06T07:43:27.311Z,31.83
2018-06-06T07:45:57.144Z,31.67
2018-06-06T07:48:26.689Z,32.60
2018-06-06T07:50:56.520Z,30.20
2018-06-06T07:53:26.309Z,31.47
2018-06-06T07:55:56.195Z,29.70
2018-06-06T07:58:26.508Z,29.13
2018-06-06T08:00:56.312Z,29.60
2018-06-06T08:03:25.837Z,29.60
2018-06-06T08:05:55.720Z,27.17
2018-06-06T08:08:25.276Z,30.70
2018-06-06T08:10:55.043Z,29.60
2018-06-06T08:13:24.931Z,29.60
2018-06-06T08:15:54.683Z,29.37
2018-06-06T08:18:24.452Z,28.17
2018-06-06T08:20:54.222Z,27.80
2018-06-06T08:23:24.408Z,28.63
2018-06-06T08:25:54.332Z,26.37
2018-06-06T08:28:24.107Z,26.63
2018-06-06T08:30:53.881Z,25.97
2018-06-06T08:33:24.444Z,25.17
2018-06-06T08:35:54.861Z,27.03
2018-06-06T08:38:24.672Z,26.17
2018-06-06T08:40:54.470Z,26.97
2018-06-06T08:43:24.235Z,27.83
2018-06-06T08:45:54.008Z,25.40
2018-06-06T08:48:23.920Z,25.17
2018-06-06T08:50:53.759Z,23.20
2018-06-06T08:53:23.629Z,23.10
2018-06-06T08:55:53.444Z,23.77
2018-06-06T08:58:23.243Z,22.53
2018-06-06T09:00:53.132Z,22.33
2018-06-06T09:03:24.991Z,22.20
2018-06-06T09:05:54.753Z,23.27
2018-06-06T09:08:24.580Z,23.50
2018-06-06T09:10:54.942Z,19.80
2018-06-06T09:13:24.790Z,20.77
2018-06-06T09:15:54.707Z,21.50
2018-06-06T09:18:24.305Z,19.70
2018-06-06T09:20:54.148Z,20.70
2018-06-06T09:23:24.036Z,18.73
2018-06-06T09:25:53.626Z,19.00
2018-06-06T09:28:23.696Z,18.93
2018-06-06T09:30:53.537Z,19.87
2018-06-06T09:33:23.358Z,18.30
2018-06-06T09:35:53.162Z,18.27
2018-06-06T09:38:22.949Z,19.77
2018-06-06T09:40:53.010Z,18.07
2018-06-06T09:43:22.841Z,16.63
2018-06-06T09:45:53.273Z,18.47
2018-06-06T09:48:23.077Z,18.20
2018-06-06T09:50:52.861Z,14.07
2018-06-06T09:53:22.653Z,15.90
2018-06-06T09:55:52.512Z,16.20
2018-06-06T09:58:22.317Z,16.53
2018-06-06T10:00:52.681Z,15.57
2018-06-06T10:03:22.282Z,16.70
2018-06-06T10:05:52.252Z,14.17
2018-06-06T10:08:22.805Z,15.30
2018-06-06T10:10:52.657Z,16.00
2018-06-06T10:13:22.464Z,15.80
2018-06-06T10:15:52.227Z,15.87
2018-06-06T10:18:22.019Z,15.10
2018-06-06T10:20:51.789Z,14.50
2018-06-06T10:23:21.743Z,15.03
2018-06-06T10:25:51.555Z,15.47
2018-06-06T10:28:22.198Z,15.60
2018-06-06T10:30:52.653Z,15.00
2018-06-06T10:33:22.515Z,14.20
2018-06-06T10:35:52.331Z,14.00
2018-06-06T10:38:22.248Z,13.73
2018-06-06T10:40:52.067Z,15.37
2018-06-06T10:43:21.861Z,16.50
2018-06-06T10:45:51.719Z,14.73
2018-06-06T10:48:21.600Z,14.27
2018-06-06T10:50:51.499Z,14.63
2018-06-06T10:53:21.450Z,13.63
2018-06-06T10:55:51.414Z,13.23
2018-06-06T10:58:21.300Z,13.63
2018-06-06T11:00:50.973Z,13.83
2018-06-06T11:03:20.684Z,13.10
2018-06-06T11:05:50.496Z,13.27
2018-06-06T11:08:20.323Z,13.03
2018-06-06T11:10:50.171Z,13.00
2018-06-06T11:13:20.091Z,11.50
2018-06-06T11:15:49.883Z,11.47
2018-06-06T11:18:19.702Z,12.10
2018-06-06T11:20:50.166Z,11.93
2018-06-06T11:23:19.958Z,11.10
2018-06-06T11:25:50.342Z,11.67
2018-06-06T11:28:20.852Z,11.90
2018-06-06T11:30:50.819Z,11.50
2018-06-06T11:33:20.612Z,11.57
2018-06-06T11:35:50.532Z,11.60
2018-06-06T11:38:20.773Z,11.83
2018-06-06T11:40:50.596Z,11.73
2018-06-06T11:43:20.426Z,12.00
2018-06-06T11:45:50.281Z,12.23
2018-06-06T11:48:20.084Z,11.53
2018-06-06T11:50:49.929Z,12.20
2018-06-06T11:53:19.762Z,11.20
2018-06-06T11:55:49.592Z,10.80
2018-06-06T11:58:20.333Z,10.90
2018-06-06T12:00:50.191Z,11.20
2018-06-06T12:03:20.487Z,11.00
2018-06-06T12:05:50.293Z,11.07
2018-06-06T12:08:20.081Z,11.67
2018-06-06T12:10:49.920Z,11.23
2018-06-06T12:13:19.745Z,11.80
2018-06-06T12:15:49.538Z,11.20
2018-06-06T12:18:19.487Z,15.93
2018-06-06T12:20:49.271Z,13.37
2018-06-06T12:23:19.157Z,11.47
2018-06-06T12:25:48.965Z,11.63
2018-06-06T12:28:19.504Z,11.80
2018-06-06T12:30:49.329Z,13.07
2018-06-06T12:33:19.161Z,11.80
2018-06-06T12:35:49.068Z,10.20
2018-06-06T12:38:19.010Z,10.60
2018-06-06T12:40:48.887Z,11.50
2018-06-06T12:43:19.093Z,12.10
2018-06-06T12:45:48.728Z,11.27
2018-06-06T12:48:18.591Z,11.33
2018-06-06T12:50:48.394Z,11.60
2018-06-06T12:53:23.125Z,11.27
2018-06-06T12:55:53.124Z,11.67
2018-06-06T12:58:22.941Z,11.50
2018-06-06T13:00:53.295Z,10.67
2018-06-06T13:03:23.598Z,11.13
2018-06-06T13:05:54.446Z,12.10
2018-06-06T13:08:24.250Z,10.83
2018-06-06T13:10:54.058Z,11.43
2018-06-06T13:13:23.848Z,10.97
2018-06-06T13:15:53.686Z,12.00
2018-06-06T13:18:23.528Z,11.50
2018-06-06T13:20:53.242Z,12.60
2018-06-06T13:23:22.883Z,11.37
2018-06-06T13:25:54.019Z,12.70
2018-06-06T13:28:23.917Z,11.23
2018-06-06T13:30:53.424Z,12.30
2018-06-06T13:33:22.960Z,11.90
2018-06-06T13:35:52.798Z,11.70
2018-06-06T13:38:22.573Z,11.37
2018-06-06T13:40:52.378Z,12.27
2018-06-06T13:46:07.137Z,11.80
2018-06-06T13:48:36.956Z,10.83
2018-06-06T13:51:06.742Z,12.10
2018-06-06T13:53:36.541Z,11.80
2018-06-06T13:56:06.374Z,12.40
2018-06-06T13:58:36.190Z,12.50
2018-06-06T14:01:06.718Z,11.90
2018-06-06T14:03:36.823Z,11.10
2018-06-06T14:06:06.658Z,12.97
2018-06-06T14:08:38.199Z,13.07
2018-06-06T14:11:07.992Z,12.33
2018-06-06T14:13:37.849Z,12.80
2018-06-06T14:16:07.720Z,14.00
2018-06-06T14:18:38.809Z,12.47
2018-06-06T14:21:08.584Z,11.13
2018-06-06T14:23:38.405Z,12.20
2018-06-06T14:26:08.874Z,11.33
2018-06-06T14:28:39.347Z,12.57
2018-06-06T14:31:09.208Z,11.43
2018-06-06T14:33:39.010Z,11.57
2018-06-06T14:36:09.740Z,12.87
2018-06-06T14:38:40.285Z,11.93
2018-06-06T14:41:10.200Z,11.60
2018-06-06T14:43:40.128Z,11.70
2018-06-06T14:46:10.013Z,11.30
2018-06-06T14:48:39.804Z,11.27
2018-06-06T14:51:11.344Z,11.50
2018-06-06T14:53:41.402Z,10.63
2018-06-06T14:56:11.289Z,11.53
2018-06-06T14:58:41.100Z,12.80
2018-06-06T15:01:10.895Z,11.60
2018-06-06T15:03:40.795Z,11.43
2018-06-06T15:06:10.660Z,11.70
2018-06-06T15:08:40.483Z,11.30
2018-06-06T15:11:10.355Z,12.03
2018-06-06T15:13:40.713Z,12.40
2018-06-06T15:16:10.335Z,11.83
2018-06-06T15:18:40.183Z,11.57
2018-06-06T15:21:09.891Z,11.00
2018-06-06T15:23:39.676Z,10.80
2018-06-06T15:26:09.508Z,11.57
2018-06-06T15:28:42.292Z,10.70
2018-06-06T15:31:12.577Z,11.07
2018-06-06T15:33:42.151Z,12.77
2018-06-06T15:36:12.141Z,12.30
2018-06-06T15:38:41.691Z,11.60
2018-06-06T15:41:11.696Z,10.67
2018-06-06T15:43:43.262Z,10.40
2018-06-06T15:46:13.073Z,10.67
2018-06-06T15:48:43.463Z,11.93
2018-06-06T15:51:13.912Z,10.87
2018-06-06T15:53:44.253Z,11.13
2018-06-06T15:56:14.738Z,11.50
2018-06-06T15:58:44.579Z,10.90
2018-06-06T16:01:14.442Z,10.93
2018-06-06T16:03:44.441Z,11.50
2018-06-06T16:06:14.241Z,13.37
2018-06-06T16:08:44.054Z,12.00
2018-06-06T16:11:13.904Z,11.70
2018-06-06T16:13:44.471Z,10.90
2018-06-06T16:16:14.243Z,11.53
2018-06-06T16:18:45.003Z,11.93
2018-06-06T16:21:14.872Z,11.20
2018-06-06T16:23:44.776Z,11.73
2018-06-06T16:26:15.056Z,11.47
2018-06-06T16:28:45.252Z,12.50
2018-06-06T16:31:15.100Z,11.97
2018-06-06T16:33:44.909Z,12.20
2018-06-06T16:36:15.202Z,11.80
2018-06-06T16:38:45.003Z,11.20
2018-06-06T16:41:14.988Z,11.53
2018-06-06T16:43:44.862Z,12.17
2018-06-06T16:46:14.661Z,12.30
2018-06-06T16:48:44.482Z,11.87
2018-06-06T16:51:15.117Z,12.17
2018-06-06T16:53:44.906Z,11.60
2018-06-06T16:56:14.783Z,10.73
2018-06-06T16:58:44.623Z,11.33
2018-06-06T17:01:14.582Z,11.00
2018-06-06T17:03:45.022Z,11.57
2018-06-06T17:06:14.841Z,13.07
2018-06-06T17:08:44.641Z,12.07
2018-06-06T17:11:14.160Z,10.77
2018-06-06T17:13:44.426Z,12.10
2018-06-06T17:16:14.281Z,11.53
2018-06-06T17:18:44.682Z,10.80
2018-06-06T17:21:14.485Z,11.47
2018-06-06T17:23:44.295Z,11.20
2018-06-06T17:26:14.650Z,10.83
2018-06-06T17:28:44.650Z,10.97
2018-06-06T17:31:14.485Z,11.43
2018-06-06T17:33:44.021Z,10.80
2018-06-06T17:36:13.718Z,12.37
2018-06-06T17:38:44.059Z,10.57
2018-06-06T17:41:14.477Z,11.03
2018-06-06T17:43:44.312Z,12.40
2018-06-06T17:46:14.149Z,11.10
2018-06-06T17:48:45.364Z,11.43
2018-06-06T17:51:15.332Z,11.53
2018-06-06T17:53:45.125Z,10.80
2018-06-06T17:56:14.971Z,10.93
2018-06-06T17:58:44.831Z,10.77
2018-06-06T18:01:14.724Z,10.50
2018-06-06T18:03:44.564Z,10.47
2018-06-06T18:06:15.034Z,10.60
2018-06-06T18:08:45.636Z,11.80
2018-06-06T18:11:15.473Z,10.17
2018-06-06T18:13:45.953Z,10.70
2018-06-06T18:16:15.810Z,10.40
2018-06-06T18:18:45.632Z,10.53
2018-06-06T18:21:15.672Z,10.80
2018-06-06T18:23:45.521Z,10.77
2018-06-06T18:26:15.481Z,11.37
2018-06-06T18:28:45.361Z,10.70
2018-06-06T18:31:15.241Z,11.00
2018-06-06T18:33:45.153Z,10.70
2018-06-06T18:36:15.927Z,11.20
2018-06-06T18:38:46.499Z,10.40
2018-06-06T18:41:19.149Z,10.27
2018-06-06T18:43:49.018Z,10.30
2018-06-06T18:46:19.645Z,9.73
2018-06-06T18:48:49.435Z,11.13
2018-06-06T18:51:19.281Z,10.27
2018-06-06T18:53:50.543Z,11.00
2018-06-06T18:56:21.200Z,10.30
2018-06-06T18:58:51.124Z,10.60
2018-06-06T19:01:21.783Z,10.60
2018-06-06T19:03:51.615Z,10.70
2018-06-06T19:06:21.516Z,10.70
2018-06-06T19:08:51.419Z,10.83
2018-06-06T19:11:21.268Z,11.20
2018-06-06T19:13:51.897Z,11.10
2018-06-06T19:16:22.108Z,12.00
2018-06-06T19:18:51.984Z,10.40
2018-06-06T19:21:21.879Z,10.23
2018-06-06T19:23:51.489Z,10.40
2018-06-06T19:26:21.320Z,10.90
2018-06-06T19:28:51.121Z,10.97
2018-06-06T19:31:20.838Z,11.47
2018-06-06T19:33:50.459Z,11.30
2018-06-06T19:36:20.337Z,10.67
2018-06-06T19:38:50.199Z,11.43
2018-06-06T19:41:19.752Z,11.23
2018-06-06T19:43:49.411Z,11.03
2018-06-06T19:46:19.323Z,10.00
2018-06-06T19:48:49.143Z,11.10
2018-06-06T19:51:19.223Z,10.50
2018-06-06T19:53:49.153Z,10.97
2018-06-06T19:56:18.992Z,10.20
2018-06-06T19:58:49.475Z,10.87
2018-06-06T20:01:26.030Z,10.03
2018-06-06T20:03:56.030Z,10.30
2018-06-06T20:06:26.330Z,9.93
2018-06-06T20:08:56.402Z,11.93
2018-06-06T20:11:27.194Z,11.10
2018-06-06T20:13:58.434Z,11.70
2018-06-06T20:16:29.164Z,11.70
2018-06-06T20:18:58.972Z,11.10
2018-06-06T20:21:28.885Z,18.03
2018-06-06T20:23:58.729Z,17.03
2018-06-06T20:26:28.578Z,13.27
2018-06-06T20:28:58.392Z,10.80
2018-06-06T20:31:29.122Z,10.30
2018-06-06T20:33:59.061Z,11.83
2018-06-06T20:36:28.889Z,11.90
2018-06-06T20:38:58.724Z,12.03
2018-06-06T20:41:28.562Z,12.50
2018-06-06T20:43:58.808Z,10.50
2018-06-06T20:46:28.400Z,11.20
2018-06-06T20:48:58.260Z,10.73
2018-06-06T20:51:28.153Z,11.10
2018-06-06T20:53:58.731Z,11.50
2018-06-06T20:56:28.689Z,10.63
2018-06-06T20:58:58.510Z,11.13
2018-06-06T21:01:28.961Z,9.97
2018-06-06T21:03:58.784Z,11.00
2018-06-06T21:06:28.593Z,11.67
2018-06-06T21:08:58.385Z,12.23
2018-06-06T21:11:28.253Z,11.90
2018-06-06T21:13:57.727Z,11.70
2018-06-06T21:16:27.429Z,11.97
2018-06-06T21:18:57.199Z,11.60
2018-06-06T21:21:27.009Z,12.13
2018-06-06T21:23:56.812Z,10.93
2018-06-06T21:26:26.629Z,11.73
2018-06-06T21:28:56.465Z,12.37
2018-06-06T21:31:26.304Z,11.80
2018-06-06T21:33:56.133Z,11.83
2018-06-06T21:36:26.022Z,11.70
2018-06-06T21:38:55.814Z,11.90
2018-06-06T21:41:26.516Z,11.43
2018-06-06T21:43:57.171Z,12.40
2018-06-06T21:46:27.017Z,12.10
2018-06-06T21:48:56.897Z,11.37
2018-06-06T21:51:26.723Z,12.20
2018-06-06T21:53:56.570Z,12.27
2018-06-06T21:56:26.748Z,12.27
2018-06-06T21:58:56.372Z,11.43
2018-06-06T22:01:26.180Z,12.87
2018-06-06T22:03:56.005Z,12.43
2018-06-06T22:06:25.796Z,11.97
2018-06-06T22:08:55.692Z,11.77
2018-06-06T22:11:25.517Z,12.37
2018-06-06T22:13:55.462Z,12.53
2018-06-06T22:16:25.244Z,12.07
2018-06-06T22:18:55.017Z,13.13
2018-06-06T22:21:24.830Z,12.50
2018-06-06T22:23:55.327Z,12.83
2018-06-06T22:26:25.112Z,12.50
2018-06-06T22:28:54.880Z,13.37
2018-06-06T22:31:24.706Z,12.43
2018-06-06T22:34:00.952Z,12.20
2018-06-06T22:36:30.748Z,13.50
2018-06-06T22:39:00.562Z,13.50
2018-06-06T22:41:30.444Z,13.50
2018-06-06T22:44:06.645Z,14.20
2018-06-06T22:46:36.464Z,13.03
2018-06-06T22:49:06.314Z,13.67
2018-06-06T22:51:36.093Z,13.53
2018-06-06T22:54:06.040Z,13.40
2018-06-06T22:56:35.882Z,13.60
2018-06-06T22:59:05.755Z,14.33
2018-06-06T23:01:35.608Z,14.07
2018-06-06T23:04:05.389Z,13.73
2018-06-06T23:06:35.180Z,14.87
2018-06-06T23:09:06.981Z,13.03
2018-06-06T23:11:36.853Z,14.30
2018-06-06T23:14:06.662Z,14.37
2018-06-06T23:16:36.449Z,13.83
2018-06-06T23:19:06.688Z,14.93
2018-06-06T23:21:36.451Z,14.00
2018-06-06T23:24:06.299Z,15.23
2018-06-06T23:26:36.076Z,15.40
2018-06-06T23:29:05.891Z,14.30
2018-06-06T23:31:35.684Z,15.40
2018-06-06T23:34:05.976Z,13.80
2018-06-06T23:36:35.744Z,14.17
2018-06-06T23:39:07.616Z,15.73
2018-06-06T23:41:37.493Z,15.13
2018-06-06T23:44:07.766Z,14.77
2018-06-06T23:46:37.604Z,14.17
2018-06-06T23:49:07.389Z,14.87
2018-06-06T23:51:37.376Z,15.90
2018-06-06T23:54:07.686Z,16.40
2018-06-06T23:56:37.512Z,14.60
2018-06-06T23:59:07.465Z,14.63
